createdAt,value
2023-03-10T00:01:10.729Z,93316.41
2023-03-10T00:03:38.155Z,93322.53
2023-03-10T00:06:08.181Z,93329.88
2023-03-10T00:08:36.016Z,93324.06
2023-03-10T00:11:03.456Z,93329.88
2023-03-10T00:13:30.932Z,93327.88
2023-03-10T00:15:58.445Z,93326.34
2023-03-10T00:18:25.881Z,93328.63
2023-03-10T00:20:54.214Z,93318.53
2023-03-10T00:23:23.560Z,93300.31
2023-03-10T00:25:56.196Z,93307.22
2023-03-10T00:28:24.105Z,93299.44
2023-03-10T00:30:59.491Z,93303.41
2023-03-10T00:33:26.993Z,93305.84
2023-03-10T00:36:06.318Z,93279.19
2023-03-10T00:38:35.676Z,93312.38
2023-03-10T00:41:05.251Z,93298.78
2023-03-10T00:43:32.728Z,93279.53
2023-03-10T00:46:00.282Z,93297.13
2023-03-10T00:48:27.817Z,93303.22
2023-03-10T00:50:55.575Z,93303.22
2023-03-10T00:53:23.405Z,93312.84
2023-03-10T00:56:03.238Z,93300.75
2023-03-10T00:58:32.033Z,93304.88
2023-03-10T01:01:00.300Z,93303.03
2023-03-10T01:03:28.403Z,93306.56
2023-03-10T01:05:56.817Z,93294.56
2023-03-10T01:08:24.881Z,93309.44
2023-03-10T01:10:52.440Z,93293.22
2023-03-10T01:13:21.301Z,93307.16
2023-03-10T01:15:49.061Z,93293.09
2023-03-10T01:18:17.289Z,93285.91
2023-03-10T01:20:45.343Z,93300.09
2023-03-10T01:23:16.857Z,93301.63
2023-03-10T01:25:44.478Z,93275.81
2023-03-10T01:28:12.617Z,93291.56
2023-03-10T01:30:42.058Z,93292.31
2023-03-10T01:33:11.293Z,93285.31
2023-03-10T01:35:39.381Z,93293.84
2023-03-10T01:38:07.604Z,93279.78
2023-03-10T01:40:35.240Z,93271.84
2023-03-10T01:43:17.514Z,93291.59
2023-03-10T01:46:30.891Z,93292.66
2023-03-10T01:49:03.583Z,93297.09
2023-03-10T01:51:35.542Z,93284.41
2023-03-10T01:54:05.290Z,93278.13
2023-03-10T01:56:32.801Z,93263.59
2023-03-10T01:59:00.433Z,93277.94
2023-03-10T02:01:27.880Z,93273.53
2023-03-10T02:04:01.071Z,93275.81
2023-03-10T02:06:30.422Z,93268.00
2023-03-10T02:09:00.224Z,93263.94
2023-03-10T02:11:27.950Z,93263.47
2023-03-10T02:13:56.245Z,93255.03
2023-03-10T02:16:24.298Z,93262.19
2023-03-10T02:18:52.017Z,93266.00
2023-03-10T02:21:28.217Z,93271.59
2023-03-10T02:24:04.346Z,93259.41
2023-03-10T02:26:39.562Z,93268.72
2023-03-10T02:29:13.240Z,93265.06
2023-03-10T02:31:41.105Z,93249.44
2023-03-10T02:34:09.125Z,93237.97
2023-03-10T02:36:36.873Z,93248.69
2023-03-10T02:39:04.764Z,93220.50
2023-03-10T02:41:36.022Z,93248.94
2023-03-10T02:44:07.108Z,93241.91
2023-03-10T02:46:35.895Z,93239.16
2023-03-10T02:49:05.990Z,93239.63
2023-03-10T02:51:35.952Z,93250.00
2023-03-10T02:54:04.086Z,93241.44
2023-03-10T02:56:32.179Z,93237.44
2023-03-10T02:58:59.688Z,93231.34
2023-03-10T03:01:27.294Z,93235.13
2023-03-10T03:03:56.173Z,93239.97
2023-03-10T03:06:24.453Z,93239.50
2023-03-10T03:08:51.925Z,93227.59
2023-03-10T03:11:19.500Z,93234.78
2023-03-10T03:13:46.936Z,93229.88
2023-03-10T03:16:14.473Z,93213.38
2023-03-10T03:18:42.369Z,93225.53
2023-03-10T03:21:15.653Z,93212.16
2023-03-10T03:23:43.510Z,93218.88
2023-03-10T03:26:16.709Z,93220.53
2023-03-10T03:28:45.185Z,93205.72
2023-03-10T03:31:17.676Z,93211.09
2023-03-10T03:33:45.477Z,93200.41
2023-03-10T03:36:14.622Z,93192.81
2023-03-10T03:38:42.354Z,93197.81
2023-03-10T03:41:10.182Z,93194.16
2023-03-10T03:43:37.686Z,93183.03
2023-03-10T03:46:05.649Z,93154.94
2023-03-10T03:48:34.639Z,93177.97
2023-03-10T03:51:03.206Z,93182.25
2023-03-10T03:53:33.807Z,93174.31
2023-03-10T03:56:01.248Z,93175.97
2023-03-10T03:58:28.672Z,93178.38
2023-03-10T04:00:56.098Z,93166.91
2023-03-10T04:03:23.787Z,93176.38
2023-03-10T04:05:51.336Z,93161.41
2023-03-10T04:08:18.781Z,93160.78
2023-03-10T04:10:52.740Z,93159.66
2023-03-10T04:13:20.176Z,93155.38
2023-03-10T04:15:48.115Z,93148.59
2023-03-10T04:18:15.573Z,93153.97
2023-03-10T04:20:43.016Z,93157.41
2023-03-10T04:23:10.478Z,93155.63
2023-03-10T04:25:37.894Z,93156.09
2023-03-10T04:28:06.723Z,93176.50
2023-03-10T04:30:34.183Z,93162.91
2023-03-10T04:33:02.509Z,93145.53
2023-03-10T04:35:30.246Z,93157.41
2023-03-10T04:37:57.732Z,93158.47
2023-03-10T04:40:25.164Z,93145.84
2023-03-10T04:42:52.642Z,93141.88
2023-03-10T04:45:21.491Z,93146.47
2023-03-10T04:47:48.924Z,93133.34
2023-03-10T04:50:17.493Z,93137.75
2023-03-10T04:52:45.790Z,93142.47
2023-03-10T04:55:14.309Z,93123.97
2023-03-10T04:57:41.764Z,93127.63
2023-03-10T05:00:12.687Z,93135.28
2023-03-10T05:02:41.659Z,93130.88
2023-03-10T05:05:09.661Z,93126.63
2023-03-10T05:07:37.131Z,93129.69
2023-03-10T05:10:05.893Z,93121.44
2023-03-10T05:12:33.769Z,93106.06
2023-03-10T05:15:01.352Z,93120.59
2023-03-10T05:17:30.113Z,93115.09
2023-03-10T05:19:59.634Z,93097.44
2023-03-10T05:22:27.055Z,93100.34
2023-03-10T05:24:54.482Z,93114.63
2023-03-10T05:27:22.062Z,93099.09
2023-03-10T05:29:49.673Z,93097.56
2023-03-10T05:32:17.216Z,93096.81
2023-03-10T05:34:44.694Z,93098.94
2023-03-10T05:37:13.445Z,93100.47
2023-03-10T05:39:40.902Z,93101.34
2023-03-10T05:42:08.422Z,93105.59
2023-03-10T05:44:35.987Z,93102.66
2023-03-10T05:47:03.509Z,93095.47
2023-03-10T05:49:31.666Z,93096.53
2023-03-10T05:51:59.693Z,93085.81
2023-03-10T05:54:29.562Z,93118.16
2023-03-10T05:56:57.078Z,93104.91
2023-03-10T05:59:24.520Z,93114.66
2023-03-10T06:01:51.961Z,93109.19
2023-03-10T06:04:19.451Z,93118.84
2023-03-10T06:06:46.931Z,93126.03
2023-03-10T06:09:14.393Z,93124.84
2023-03-10T06:11:43.147Z,93100.25
2023-03-10T06:14:10.894Z,93126.66
2023-03-10T06:16:38.385Z,93119.34
2023-03-10T06:19:05.996Z,93113.41
2023-03-10T06:21:33.431Z,93121.00
2023-03-10T06:24:00.880Z,93111.13
2023-03-10T06:26:28.375Z,93100.41
2023-03-10T06:28:57.181Z,93117.69
2023-03-10T06:31:25.502Z,93129.59
2023-03-10T06:33:53.705Z,93127.31
2023-03-10T06:36:23.041Z,93135.97
2023-03-10T06:38:50.714Z,93135.38
2023-03-10T06:41:18.508Z,93133.22
2023-03-10T06:43:46.129Z,93090.53
2023-03-10T06:46:15.814Z,93131.63
2023-03-10T06:48:44.072Z,93139.28
2023-03-10T06:51:14.734Z,93135.75
2023-03-10T06:53:42.209Z,93129.16
2023-03-10T06:56:12.988Z,93142.13
2023-03-10T06:58:41.415Z,93141.25
2023-03-10T07:01:09.477Z,93142.59
2023-03-10T07:03:38.679Z,93143.16
2023-03-10T07:06:06.813Z,93148.66
2023-03-10T07:08:34.243Z,93149.28
2023-03-10T07:11:01.665Z,93154.47
2023-03-10T07:13:29.115Z,93149.66
2023-03-10T07:15:57.618Z,93160.38
2023-03-10T07:18:27.598Z,93160.69
2023-03-10T07:20:57.530Z,93161.72
2023-03-10T07:23:25.599Z,93168.84
2023-03-10T07:25:53.768Z,93168.81
2023-03-10T07:28:21.313Z,93166.38
2023-03-10T07:30:49.147Z,93143.66
2023-03-10T07:33:16.871Z,93168.38
2023-03-10T07:35:44.398Z,93161.38
2023-03-10T07:38:13.236Z,93162.72
2023-03-10T07:40:40.963Z,93171.28
2023-03-10T07:43:08.426Z,93168.50
2023-03-10T07:45:35.983Z,93177.81
2023-03-10T07:48:03.429Z,93180.41
2023-03-10T07:50:30.887Z,93190.75
2023-03-10T07:52:58.332Z,93181.53
2023-03-10T07:55:27.066Z,93192.53
2023-03-10T07:57:56.633Z,93180.03
2023-03-10T08:00:24.238Z,93201.38
2023-03-10T08:02:51.697Z,93191.22
2023-03-10T08:05:19.324Z,93183.66
2023-03-10T08:07:46.984Z,93179.06
2023-03-10T08:10:14.652Z,93183.81
2023-03-10T08:12:43.515Z,93193.34
2023-03-10T08:15:13.212Z,93185.88
2023-03-10T08:17:40.638Z,93190.13
2023-03-10T08:20:09.462Z,93197.00
2023-03-10T08:22:36.898Z,93195.34
2023-03-10T08:25:04.699Z,93193.22
2023-03-10T08:27:32.126Z,93175.09
2023-03-10T08:30:00.925Z,93199.72
2023-03-10T08:32:28.516Z,93195.66
2023-03-10T08:34:55.961Z,93207.78
2023-03-10T08:37:23.441Z,93193.03
2023-03-10T08:39:53.428Z,93199.75
2023-03-10T08:42:20.987Z,93179.38
2023-03-10T08:44:48.413Z,93191.16
2023-03-10T08:47:17.300Z,93187.47
2023-03-10T08:49:47.644Z,93193.84
2023-03-10T08:52:16.535Z,93200.47
2023-03-10T08:54:43.950Z,93199.28
2023-03-10T08:57:11.378Z,93204.59
2023-03-10T08:59:38.807Z,93213.94
2023-03-10T09:02:06.551Z,93188.28
2023-03-10T09:04:35.396Z,93212.53
2023-03-10T09:07:02.848Z,93210.72
2023-03-10T09:09:30.382Z,93210.09
2023-03-10T09:11:57.886Z,93205.81
2023-03-10T09:14:25.741Z,93205.81
2023-03-10T09:16:53.303Z,93188.59
2023-03-10T09:19:20.764Z,93201.81
2023-03-10T09:21:49.522Z,93206.19
2023-03-10T09:24:17.916Z,93197.81
2023-03-10T09:26:45.373Z,93196.69
2023-03-10T09:29:12.967Z,93189.97
2023-03-10T09:31:40.491Z,93194.50
2023-03-10T09:34:09.018Z,93188.25
2023-03-10T09:36:36.761Z,93184.38
2023-03-10T09:39:06.075Z,93187.13
2023-03-10T09:42:08.900Z,93203.50
2023-03-10T09:44:43.381Z,93197.53
2023-03-10T09:47:25.742Z,93184.84
2023-03-10T09:50:16.240Z,93190.03
2023-03-10T09:52:47.408Z,93189.56
2023-03-10T09:55:21.583Z,93191.56
2023-03-10T09:57:51.455Z,93179.50
2023-03-10T10:00:24.213Z,93187.28
2023-03-10T10:03:00.889Z,93182.88
2023-03-10T10:05:33.456Z,93183.03
2023-03-10T10:08:04.280Z,93189.91
2023-03-10T10:10:37.712Z,93187.44
2023-03-10T10:13:14.256Z,93163.41
2023-03-10T10:15:45.816Z,93200.56
2023-03-10T10:18:20.855Z,93179.59
2023-03-10T10:20:53.620Z,93212.75
2023-03-10T10:23:24.976Z,93199.59
2023-03-10T10:25:54.606Z,93198.81
2023-03-10T10:28:29.642Z,93198.41
2023-03-10T10:31:12.185Z,93207.53
2023-03-10T10:34:00.025Z,93196.03
2023-03-10T10:36:30.896Z,93211.66
2023-03-10T10:38:58.984Z,93212.41
2023-03-10T10:41:30.301Z,93219.00
2023-03-10T10:44:00.228Z,93210.59
2023-03-10T10:46:30.707Z,93208.19
2023-03-10T10:49:19.666Z,93218.59
2023-03-10T10:51:58.105Z,93220.56
2023-03-10T10:54:29.002Z,93222.72
2023-03-10T10:56:59.339Z,93201.31
2023-03-10T10:59:31.532Z,93211.13
2023-03-10T11:02:00.662Z,93202.56
2023-03-10T11:04:30.243Z,93165.25
2023-03-10T11:07:12.807Z,93202.69
2023-03-10T11:09:40.243Z,93185.06
2023-03-10T11:12:20.057Z,93203.50
2023-03-10T11:14:57.811Z,93209.88
2023-03-10T11:17:30.597Z,93203.69
2023-03-10T11:20:07.942Z,93199.25
2023-03-10T11:22:42.480Z,93194.19
2023-03-10T11:25:21.473Z,93191.16
2023-03-10T11:28:02.138Z,93177.34
2023-03-10T11:30:32.779Z,93184.25
2023-03-10T11:33:11.257Z,93199.84
2023-03-10T11:35:45.466Z,93193.38
2023-03-10T11:38:28.401Z,93193.53
2023-03-10T11:40:58.314Z,93199.69
2023-03-10T11:43:34.908Z,93184.38
2023-03-10T11:46:09.521Z,93186.69
2023-03-10T11:48:50.233Z,93178.09
2023-03-10T11:51:27.334Z,93178.47
2023-03-10T11:53:57.665Z,93177.41
2023-03-10T11:56:26.507Z,93176.06
2023-03-10T11:58:58.950Z,93157.09
2023-03-10T12:01:31.180Z,93160.63
2023-03-10T12:04:07.207Z,93159.88
2023-03-10T12:06:40.930Z,93161.13
2023-03-10T12:09:13.545Z,93150.75
2023-03-10T12:11:41.169Z,93142.81
2023-03-10T12:14:15.105Z,93142.97
2023-03-10T12:16:43.029Z,93132.09
2023-03-10T12:19:10.498Z,93133.19
2023-03-10T12:21:37.928Z,93147.09
2023-03-10T12:24:05.869Z,93136.25
2023-03-10T12:26:58.882Z,93149.97
2023-03-10T12:29:38.060Z,93158.84
2023-03-10T12:32:06.590Z,93152.28
2023-03-10T12:34:34.565Z,93155.03
2023-03-10T12:37:08.010Z,93126.59
2023-03-10T12:39:40.814Z,93123.25
2023-03-10T12:42:32.777Z,93142.19
2023-03-10T12:45:09.369Z,93127.38
2023-03-10T12:47:46.461Z,93146.34
2023-03-10T12:50:22.771Z,93143.41
2023-03-10T12:52:58.384Z,93133.03
2023-03-10T12:55:27.748Z,93146.47
2023-03-10T12:58:03.639Z,93104.47
2023-03-10T13:00:43.015Z,93120.94
2023-03-10T13:03:23.424Z,93115.47
2023-03-10T13:06:01.481Z,93094.22
2023-03-10T13:08:36.316Z,93116.06
2023-03-10T13:11:04.716Z,93100.63
2023-03-10T13:13:35.826Z,93137.63
2023-03-10T13:16:06.711Z,93139.75
2023-03-10T13:18:35.157Z,93169.69
2023-03-10T13:21:02.754Z,93170.16
2023-03-10T13:23:34.149Z,93154.53
2023-03-10T13:26:03.475Z,93164.75
2023-03-10T13:28:34.409Z,93168.16
2023-03-10T13:31:19.473Z,93178.44
2023-03-10T13:33:53.401Z,93178.25
2023-03-10T13:36:29.608Z,93165.28
2023-03-10T13:38:57.280Z,93197.78
2023-03-10T13:41:25.625Z,93180.94
2023-03-10T13:43:54.938Z,93139.53
2023-03-10T13:46:28.111Z,93161.50
2023-03-10T13:48:58.850Z,93201.09
2023-03-10T13:51:31.720Z,93221.88
2023-03-10T13:54:14.656Z,93240.00
2023-03-10T13:56:44.236Z,93230.16
2023-03-10T13:59:15.522Z,93212.81
2023-03-10T14:01:49.809Z,93217.78
2023-03-10T14:04:19.590Z,93250.50
2023-03-10T14:06:47.384Z,93254.03
2023-03-10T14:09:17.032Z,93286.91
2023-03-10T14:11:46.944Z,93274.47
2023-03-10T14:14:26.742Z,93288.47
2023-03-10T14:16:57.706Z,93306.75
2023-03-10T14:19:52.214Z,93306.50
2023-03-10T14:22:28.902Z,93288.66
2023-03-10T14:24:56.676Z,93302.16
2023-03-10T14:27:24.605Z,93262.75
2023-03-10T14:29:57.103Z,93312.84
2023-03-10T14:32:26.067Z,93322.97
2023-03-10T14:34:53.546Z,93336.03
2023-03-10T14:37:21.105Z,93241.66
2023-03-10T14:39:48.522Z,93290.47
2023-03-10T14:42:21.170Z,93316.31
2023-03-10T14:44:50.054Z,93315.44
2023-03-10T14:47:18.175Z,93323.09
2023-03-10T14:49:47.200Z,93311.44
2023-03-10T14:52:16.229Z,93340.69
2023-03-10T14:54:43.846Z,93344.44
2023-03-10T14:57:13.178Z,93339.84
2023-03-10T14:59:40.913Z,93326.59
2023-03-10T15:02:18.448Z,93317.22
2023-03-10T15:04:47.303Z,93296.16
2023-03-10T15:07:15.195Z,93319.53
2023-03-10T15:09:42.695Z,93298.66
2023-03-10T15:12:10.646Z,93310.94
2023-03-10T15:14:38.114Z,93315.25
2023-03-10T15:17:05.962Z,93326.59
2023-03-10T15:19:33.466Z,93318.69
2023-03-10T15:22:02.273Z,93341.78
2023-03-10T15:24:29.694Z,93308.78
2023-03-10T15:26:57.154Z,93356.81
2023-03-10T15:29:24.664Z,93351.38
2023-03-10T15:31:52.116Z,93361.44
2023-03-10T15:34:20.623Z,93366.63
2023-03-10T15:36:48.212Z,93328.31
2023-03-10T15:39:30.725Z,93352.84
2023-03-10T15:41:58.854Z,93320.50
2023-03-10T15:44:26.454Z,93324.53
2023-03-10T15:46:54.791Z,93330.78
2023-03-10T15:49:22.540Z,93320.75
2023-03-10T15:51:50.018Z,93350.41
2023-03-10T15:54:18.895Z,93338.88
2023-03-10T15:56:46.341Z,93369.84
2023-03-10T15:59:13.952Z,93381.44
2023-03-10T16:01:41.500Z,93373.72
2023-03-10T16:04:08.940Z,93403.91
2023-03-10T16:06:36.499Z,93365.09
2023-03-10T16:09:04.590Z,93388.38
2023-03-10T16:11:33.431Z,93431.41
2023-03-10T16:14:00.898Z,93430.66
2023-03-10T16:16:28.595Z,93425.72
2023-03-10T16:18:56.126Z,93438.41
2023-03-10T16:21:23.562Z,93430.31
2023-03-10T16:23:51.038Z,93422.44
2023-03-10T16:26:20.049Z,93448.47
2023-03-10T16:28:50.702Z,93482.53
2023-03-10T16:31:19.928Z,93521.41
2023-03-10T16:33:48.664Z,93528.94
2023-03-10T16:36:17.419Z,93529.22
2023-03-10T16:38:44.979Z,93516.59
2023-03-10T16:41:13.632Z,93547.91
2023-03-10T16:43:41.174Z,93590.16
2023-03-10T16:46:12.359Z,93644.81
2023-03-10T16:48:42.468Z,93601.06
2023-03-10T16:51:22.990Z,93693.34
2023-03-10T16:53:51.546Z,93631.69
2023-03-10T16:56:19.387Z,93674.84
2023-03-10T16:58:47.172Z,93680.78
2023-03-10T17:01:15.996Z,93705.84
2023-03-10T17:03:43.598Z,93770.91
2023-03-10T17:06:13.966Z,93769.41
2023-03-10T17:08:42.398Z,93776.78
2023-03-10T17:11:18.450Z,93796.38
2023-03-10T17:13:47.204Z,93799.09
2023-03-10T17:16:17.669Z,93830.06
2023-03-10T17:18:45.705Z,93829.78
2023-03-10T17:21:16.258Z,93836.03
2023-03-10T17:23:44.774Z,93895.25
2023-03-10T17:26:13.123Z,93895.84
2023-03-10T17:28:41.685Z,93899.78
2023-03-10T17:31:10.455Z,93889.47
2023-03-10T17:33:39.534Z,93875.56
2023-03-10T17:36:09.401Z,93896.72
2023-03-10T17:38:37.594Z,93890.13
2023-03-10T17:41:05.941Z,93958.97
2023-03-10T17:43:34.595Z,93962.00
2023-03-10T17:46:04.402Z,93953.47
2023-03-10T17:48:33.049Z,93990.06
2023-03-10T17:51:01.931Z,93976.97
2023-03-10T17:53:29.825Z,94016.47
2023-03-10T17:55:57.287Z,94019.47
2023-03-10T17:58:26.877Z,94044.72
2023-03-10T18:00:54.751Z,94065.66
2023-03-10T18:03:22.301Z,94089.16
2023-03-10T18:05:49.802Z,94087.94
2023-03-10T18:08:18.627Z,94066.06
2023-03-10T18:10:46.107Z,94088.97
2023-03-10T18:13:13.580Z,94102.13
2023-03-10T18:15:41.326Z,94064.88
2023-03-10T18:18:09.306Z,94084.88
2023-03-10T18:20:52.000Z,94066.56
2023-03-10T18:23:22.948Z,94047.44
2023-03-10T18:25:51.254Z,94092.47
2023-03-10T18:28:25.439Z,94099.69
2023-03-10T18:30:53.262Z,94153.41
2023-03-10T18:33:21.069Z,94147.28
2023-03-10T18:35:49.575Z,94184.09
2023-03-10T18:38:19.234Z,94196.78
2023-03-10T18:40:48.629Z,94160.75
2023-03-10T18:43:16.283Z,94196.78
2023-03-10T18:45:44.792Z,94180.09
2023-03-10T18:48:12.610Z,94199.47
2023-03-10T18:50:43.287Z,94172.63
2023-03-10T18:53:11.253Z,94197.34
2023-03-10T18:55:40.636Z,94234.50
2023-03-10T18:58:09.913Z,94238.28
2023-03-10T19:00:38.480Z,94204.22
2023-03-10T19:03:06.207Z,94234.84
2023-03-10T19:05:33.840Z,94253.31
2023-03-10T19:08:01.451Z,94278.88
2023-03-10T19:10:29.049Z,94202.44
2023-03-10T19:12:56.725Z,94280.09
2023-03-10T19:15:26.179Z,94313.03
2023-03-10T19:17:53.897Z,94300.13
2023-03-10T19:20:21.864Z,94243.28
2023-03-10T19:22:51.520Z,94329.50
2023-03-10T19:25:20.515Z,94283.69
2023-03-10T19:27:48.929Z,94308.41
2023-03-10T19:30:19.859Z,94274.22
2023-03-10T19:32:49.994Z,94331.13
2023-03-10T19:35:18.988Z,94320.34
2023-03-10T19:37:48.354Z,94338.72
2023-03-10T19:40:18.052Z,94321.19
2023-03-10T19:42:46.171Z,94356.28
2023-03-10T19:45:15.381Z,94359.53
2023-03-10T19:47:45.941Z,94325.97
2023-03-10T19:50:17.591Z,94377.84
2023-03-10T19:52:45.786Z,94392.59
2023-03-10T19:55:19.396Z,94349.22
2023-03-10T19:57:48.211Z,94379.97
2023-03-10T20:00:18.737Z,94364.47
2023-03-10T20:02:46.583Z,94401.59
2023-03-10T20:05:16.415Z,94398.81
2023-03-10T20:07:46.337Z,94376.91
2023-03-10T20:10:17.623Z,94420.16
2023-03-10T20:12:54.522Z,94406.03
2023-03-10T20:15:22.471Z,94354.88
2023-03-10T20:17:50.186Z,94384.28
2023-03-10T20:20:20.811Z,94363.84
2023-03-10T20:22:50.310Z,94423.88
2023-03-10T20:25:24.307Z,94436.53
2023-03-10T20:27:53.655Z,94457.03
2023-03-10T20:30:24.643Z,94460.31
2023-03-10T20:32:52.502Z,94463.28
2023-03-10T20:35:22.105Z,94465.50
2023-03-10T20:37:54.418Z,94454.06
2023-03-10T20:40:24.358Z,94490.09
2023-03-10T20:42:53.179Z,94468.38
2023-03-10T20:45:21.919Z,94514.25
2023-03-10T20:47:51.153Z,94505.16
2023-03-10T20:50:23.112Z,94465.22
2023-03-10T20:52:51.496Z,94486.88
2023-03-10T20:55:21.202Z,94535.31
2023-03-10T20:57:53.955Z,94516.69
2023-03-10T21:00:24.581Z,94542.53
2023-03-10T21:02:56.893Z,94514.22
2023-03-10T21:05:28.727Z,94557.16
2023-03-10T21:07:56.492Z,94556.88
2023-03-10T21:10:25.936Z,94547.59
2023-03-10T21:12:53.846Z,94486.84
2023-03-10T21:15:21.566Z,94556.19
2023-03-10T21:17:49.991Z,94517.88
2023-03-10T21:20:23.105Z,94563.44
2023-03-10T21:22:52.510Z,94512.22
2023-03-10T21:25:22.955Z,94557.41
2023-03-10T21:27:54.065Z,94583.81
2023-03-10T21:30:25.879Z,94592.22
2023-03-10T21:32:56.846Z,94582.56
2023-03-10T21:35:25.205Z,94602.06
2023-03-10T21:37:55.475Z,94596.53
2023-03-10T21:40:26.510Z,94560.97
2023-03-10T21:42:56.722Z,94601.06
2023-03-10T21:45:25.813Z,94614.44
2023-03-10T21:47:53.362Z,94542.31
2023-03-10T21:50:21.313Z,94604.25
2023-03-10T21:52:49.025Z,94632.69
2023-03-10T21:55:20.379Z,94626.78
2023-03-10T21:57:48.052Z,94627.88
2023-03-10T22:00:19.206Z,94619.38
2023-03-10T22:02:47.729Z,94601.31
2023-03-10T22:05:17.295Z,94637.81
2023-03-10T22:07:45.232Z,94655.50
2023-03-10T22:10:13.683Z,94644.28
2023-03-10T22:12:42.772Z,94649.63
2023-03-10T22:15:16.266Z,94625.66
2023-03-10T22:17:43.787Z,94666.53
2023-03-10T22:20:14.410Z,94660.81
2023-03-10T22:22:41.866Z,94614.75
2023-03-10T22:25:10.246Z,94647.81
2023-03-10T22:27:37.793Z,94664.88
2023-03-10T22:30:08.560Z,94637.44
2023-03-10T22:32:36.088Z,94667.94
2023-03-10T22:35:03.630Z,94661.44
2023-03-10T22:37:31.104Z,94694.66
2023-03-10T22:39:58.755Z,94687.56
2023-03-10T22:42:26.238Z,94657.44
2023-03-10T22:44:53.717Z,94669.59
2023-03-10T22:47:22.626Z,94680.75
2023-03-10T22:49:50.149Z,94703.56
2023-03-10T22:52:17.608Z,94635.81
2023-03-10T22:54:45.066Z,94730.47
2023-03-10T22:57:15.007Z,94680.19
2023-03-10T22:59:42.529Z,94684.81
2023-03-10T23:02:10.593Z,94702.31
2023-03-10T23:04:39.602Z,94726.03
2023-03-10T23:07:07.177Z,94726.81
2023-03-10T23:09:34.780Z,94723.44
2023-03-10T23:12:02.809Z,94722.22
2023-03-10T23:14:30.268Z,94720.06
2023-03-10T23:16:57.702Z,94720.25
2023-03-10T23:19:25.138Z,94724.78
2023-03-10T23:21:53.962Z,94735.81
2023-03-10T23:24:21.508Z,94724.81
2023-03-10T23:26:49.018Z,94699.56
2023-03-10T23:29:16.605Z,94739.34
2023-03-10T23:31:44.285Z,94738.13
2023-03-10T23:34:11.807Z,94714.16
2023-03-10T23:36:39.263Z,94708.63
2023-03-10T23:39:11.036Z,94765.69
2023-03-10T23:41:38.496Z,94747.78
2023-03-10T23:44:06.151Z,94768.25
2023-03-10T23:46:33.685Z,94722.41
2023-03-10T23:49:01.117Z,94759.22
2023-03-10T23:51:28.831Z,94774.72
2023-03-10T23:53:56.315Z,94785.31
2023-03-10T23:56:25.139Z,94769.63
2023-03-10T23:58:52.607Z,94787.09
